Flight Track Log - Related Links

Times and Time Zones

All times are in EST time to prevent confusion due to time zone crossing. See the FIN666 flight status page for this flight to view local times or setup timezone preferences in your user account.

Time Position Orientation Groundspeed Altitude Reporting Facility
EST Latitude Longitude Course Direction KTS MPH feet Rate Location/Type
Thu 07:27:00 AM 55.8556 13.1474 49° Northeast  Level Estimated
Thu 07:28:00 AM 55.9343 13.3125 50° Northeast  Level Estimated
Thu 07:29:00 AM 56.0129 13.4784 50° Northeast  Level Estimated
Thu 07:30:00 AM 56.0963 13.6556 50° Northeast  Level Estimated
Thu 07:31:00 AM 56.1794 13.8337 50° Northeast  Level Estimated
Thu 07:32:00 AM 56.2623 14.0125 50° Northeast  Level Estimated
Thu 07:33:00 AM 56.3449 14.1920 50° Northeast  Level Estimated
Thu 07:34:00 AM 56.4272 14.3724 50° Northeast  Level Estimated
Thu 07:35:00 AM 56.5093 14.5535 51° Northeast  Level Estimated
Thu 07:36:00 AM 56.5912 14.7354 51° Northeast  Level Estimated
Thu 07:37:00 AM 56.6727 14.9181 51° Northeast  Level Estimated
Thu 07:38:00 AM 56.7540 15.1016 51° Northeast  Level Estimated
Thu 07:39:00 AM 56.8350 15.2859 51° Northeast  Level Estimated
Thu 07:40:00 AM 56.9145 15.4681 51° Northeast  Level Estimated
Thu 07:41:00 AM 56.9937 15.6510 51° Northeast  Level Estimated
Thu 07:42:00 AM 57.0726 15.8347 52° Northeast  Level Estimated
Thu 07:43:00 AM 57.1513 16.0192 52° Northeast  Level Estimated
Thu 07:44:00 AM 57.2297 16.2044 52° Northeast  Level Estimated
Thu 07:45:00 AM 57.3078 16.3905 52° Northeast  Level Estimated
Thu 07:46:00 AM 57.3856 16.5773 52° Northeast  Level Estimated
Thu 07:47:00 AM 57.4632 16.7650 52° Northeast  Level Estimated
Thu 07:48:00 AM 57.5405 16.9534 53° Northeast  Level Estimated
Thu 07:49:00 AM 57.6175 17.1426 53° Northeast  Level Estimated
Thu 07:50:00 AM 57.6942 17.3327 53° Northeast  Level Estimated
Thu 07:51:00 AM 57.7706 17.5235 53° Northeast  Level Estimated
Thu 07:52:00 AM 57.8467 17.7152 53° Northeast  Level Estimated
Thu 07:53:00 AM 57.9226 17.9076 53° Northeast  Level Estimated
Thu 07:54:00 AM 57.9981 18.1009 54° Northeast  Level Estimated
Thu 07:55:00 AM 58.0734 18.2950 54° Northeast  Level Estimated
Thu 07:56:00 AM 58.1484 18.4899 54° Northeast  Level Estimated
Thu 07:57:00 AM 58.2230 18.6856 54° Northeast  Level Estimated
Thu 07:58:00 AM 58.2974 18.8822 54° Northeast  Level Estimated
Thu 07:59:00 AM 58.3715 19.0795 54° Northeast  Level Estimated
Thu 08:00:00 AM 58.4452 19.2778 55° Northeast  Level Estimated
Thu 08:01:00 AM 58.5187 19.4768 55° Northeast  Level Estimated
Thu 08:02:00 AM 58.5918 19.6767 55° Northeast  Level Estimated
Thu 08:03:00 AM 58.6647 19.8774 55° Northeast  Level Estimated
Thu 08:04:00 AM 58.7372 20.0789 55° Northeast  Level Estimated
Thu 08:05:00 AM 58.8094 20.2813 55° Northeast  Level Estimated
Thu 08:06:00 AM 58.8813 20.4845 56° Northeast  Level Estimated
Thu 08:07:00 AM 58.9529 20.6886 56° Northeast  Level Estimated
Thu 08:08:00 AM 59.0241 20.8935 56° Northeast  Level Estimated
Thu 08:09:00 AM 59.0961 21.1026 56° Northeast  Level Estimated
Thu 08:10:00 AM 59.1679 21.3126 56° Northeast  Level Estimated
Thu 08:11:00 AM 59.2393 21.5234 56° Northeast  Level Estimated
Thu 08:12:00 AM 59.3103 21.7351 57° Northeast  Level Estimated
Thu 08:13:00 AM 59.3810 21.9478 57° Northeast  Level Estimated
Thu 08:14:00 AM 59.4513 22.1613 57° Northeast  Level Estimated
Thu 08:15:00 AM 59.5213 22.3757 57° Northeast  Level Estimated
Thu 08:16:00 AM 59.5910 22.5909 57° Northeast  Level Estimated
Thu 08:17:00 AM 59.6603 22.8071 58° Northeast  Level Estimated
Thu 08:18:00 AM 59.7292 23.0242 58° Northeast  Level Estimated
Thu 08:19:00 AM 59.7978 23.2421 58° Northeast  Level Estimated
Thu 08:20:00 AM 59.8660 23.4610 58° Northeast  Level Estimated
Thu 08:21:00 AM 59.9338 23.6807 58° Northeast  Level Estimated
Thu 08:22:00 AM 60.0013 23.9014 58° Northeast  Level Estimated
Thu 08:23:00 AM 60.0684 24.1229 59° Northeast  Level Estimated
Thu 08:24:00 AM 60.1352 24.3454 59° Northeast  Level Estimated
Thu 08:25:00 AM 60.2015 24.5688 59° Northeast  Level Estimated
Thu 08:26:00 AM 60.2675 24.7930 59° Northeast  Level Estimated
Thu 08:27:00 AM 60.3172 24.9633 59° Northeast  Level Estimated
Thu 08:28:00 AM 60.3172 24.9633 37° Northeast  Level Estimated
Thu 08:29:00 AM 60.3172 24.9633 37° Northeast  Level Estimated
Thu 08:30:00 AM 60.3172 24.9633 37° Northeast  Level Estimated
Thu 08:31:00 AM 60.3172 24.9633 37° Northeast  Level Estimated
Thu 08:32:00 AM 60.3172 24.9633 37° Northeast  Level Estimated
Thu 08:33:00 AM 60.3172 24.9633 37° Northeast  Level Estimated
Thu 08:34:00 AM 60.3172 24.9633 37° Northeast  Level Estimated
Thu 08:35:00 AM 60.3172 24.9633 37° Northeast  Level Estimated
Thu 08:36:00 AM 60.3172 24.9633 37° Northeast  Level Estimated
Thu 08:37:00 AM 60.3172 24.9633 37° Northeast  Level Estimated
Thu 08:38:00 AM 60.3172 24.9633 37° Northeast  Level Estimated
Thu 08:39:00 AM 60.3172 24.9633 37° Northeast  Level Estimated

Login

Don't have an account? Register now (free) for customized features, flight alerts, and more!